createdAt,value
2019-06-04T00:02:26.787Z,3.73
2019-06-04T00:04:54.161Z,3.20
2019-06-04T00:07:21.043Z,4.47
2019-06-04T00:09:47.655Z,3.97
2019-06-04T00:12:14.352Z,3.13
2019-06-04T00:14:40.961Z,3.70
2019-06-04T00:17:07.979Z,3.80
2019-06-04T00:19:34.959Z,4.20
2019-06-04T00:22:02.232Z,3.03
2019-06-04T00:24:30.476Z,4.37
2019-06-04T00:27:00.829Z,4.73
2019-06-04T00:29:28.019Z,4.20
2019-06-04T00:31:55.981Z,4.20
2019-06-04T00:34:23.547Z,4.03
2019-06-04T00:36:50.792Z,4.97
2019-06-04T00:39:18.051Z,3.90
2019-06-04T00:41:44.996Z,3.87
2019-06-04T00:44:11.942Z,3.97
2019-06-04T00:46:38.671Z,3.80
2019-06-04T00:49:05.622Z,4.30
2019-06-04T00:51:32.570Z,4.60
2019-06-04T00:54:01.018Z,4.90
2019-06-04T00:56:28.304Z,4.23
2019-06-04T00:58:54.943Z,3.70
2019-06-04T01:01:21.691Z,4.07
2019-06-04T01:03:50.519Z,4.73
2019-06-04T01:06:18.360Z,4.43
2019-06-04T01:08:46.809Z,4.70
2019-06-04T01:11:13.758Z,4.00
2019-06-04T01:13:42.407Z,3.63
2019-06-04T01:16:11.095Z,3.80
2019-06-04T01:18:39.544Z,4.23
2019-06-04T01:21:07.147Z,3.80
2019-06-04T01:23:34.032Z,4.83
2019-06-04T01:26:01.478Z,3.60
2019-06-04T01:28:28.251Z,3.70
2019-06-04T01:30:55.258Z,4.53
2019-06-04T01:33:38.209Z,4.57
2019-06-04T01:35:50.440Z,4.13
2019-06-04T01:38:17.091Z,4.27
2019-06-04T01:40:43.703Z,3.60
2019-06-04T01:43:11.533Z,3.53
2019-06-04T01:45:42.875Z,3.70
2019-06-04T01:48:09.940Z,4.80
2019-06-04T01:50:37.075Z,3.60
2019-06-04T01:53:05.059Z,4.33
2019-06-04T01:55:33.182Z,4.53
2019-06-04T01:58:02.835Z,3.80
2019-06-04T02:00:31.303Z,5.10
2019-06-04T02:02:58.159Z,4.17
2019-06-04T02:05:25.885Z,4.40
2019-06-04T02:07:52.604Z,4.30
2019-06-04T02:10:20.097Z,4.10
2019-06-04T02:12:47.040Z,4.00
2019-06-04T02:15:15.382Z,4.37
2019-06-04T02:17:42.553Z,3.53
2019-06-04T02:20:10.032Z,4.67
2019-06-04T02:22:38.431Z,3.33
2019-06-04T02:25:06.270Z,4.13
2019-06-04T02:27:34.143Z,4.80
2019-06-04T02:30:01.362Z,4.47
2019-06-04T02:32:28.436Z,4.43
2019-06-04T02:34:55.099Z,4.33
2019-06-04T02:37:21.734Z,4.63
2019-06-04T02:39:49.599Z,4.87
2019-06-04T02:42:19.233Z,4.20
2019-06-04T02:44:47.239Z,3.87
2019-06-04T02:47:16.080Z,4.40
2019-06-04T02:49:43.911Z,4.13
2019-06-04T02:52:13.226Z,3.53
2019-06-04T02:54:41.643Z,3.70
2019-06-04T02:57:10.089Z,4.63
2019-06-04T02:59:38.452Z,4.97
2019-06-04T03:02:05.390Z,5.03
2019-06-04T03:04:33.873Z,4.10
2019-06-04T03:07:00.504Z,4.17
2019-06-04T03:09:27.555Z,4.80
2019-06-04T03:11:55.308Z,3.72
2019-06-04T03:14:22.057Z,3.90
2019-06-04T03:16:49.427Z,4.17
2019-06-04T03:19:16.495Z,4.63
2019-06-04T03:21:43.427Z,4.00
2019-06-04T03:24:10.794Z,4.23
2019-06-04T03:26:38.213Z,4.17
2019-06-04T03:29:05.363Z,3.70
2019-06-04T03:31:32.514Z,4.90
2019-06-04T03:34:00.197Z,5.20
2019-06-04T03:36:27.631Z,4.50
2019-06-04T03:38:54.985Z,4.20
2019-06-04T03:41:22.033Z,3.70
2019-06-04T03:43:48.975Z,4.23
2019-06-04T03:46:16.231Z,4.13
2019-06-04T03:48:43.280Z,4.57
2019-06-04T03:51:10.221Z,3.87
2019-06-04T03:53:36.879Z,6.00
2019-06-04T03:56:03.905Z,5.27
2019-06-04T03:58:30.556Z,4.43
2019-06-04T04:00:58.924Z,5.83
2019-06-04T04:03:26.278Z,5.53
2019-06-04T04:05:53.633Z,5.00
2019-06-04T04:08:21.789Z,5.40
2019-06-04T04:10:51.205Z,4.67
2019-06-04T04:13:19.276Z,4.70
2019-06-04T04:15:46.247Z,5.17
2019-06-04T04:18:13.479Z,5.27
2019-06-04T04:20:42.335Z,5.10
2019-06-04T04:23:09.167Z,4.83
2019-06-04T04:25:36.883Z,4.90
2019-06-04T04:28:03.887Z,4.70
2019-06-04T04:30:30.964Z,4.53
2019-06-04T04:32:57.676Z,4.77
2019-06-04T04:35:25.334Z,5.97
2019-06-04T04:37:53.743Z,5.83
2019-06-04T04:40:21.773Z,4.40
2019-06-04T04:42:49.481Z,5.47
2019-06-04T04:45:16.139Z,4.80
2019-06-04T04:47:43.364Z,4.53
2019-06-04T04:50:10.725Z,5.70
2019-06-04T04:52:37.973Z,5.43
2019-06-04T04:55:05.024Z,5.70
2019-06-04T04:57:31.967Z,5.03
2019-06-04T04:59:59.316Z,6.17
2019-06-04T05:02:26.372Z,9.43
2019-06-04T05:04:53.721Z,6.17
2019-06-04T05:07:22.103Z,5.37
2019-06-04T05:09:49.964Z,5.50
2019-06-04T05:12:18.442Z,5.40
2019-06-04T05:14:48.428Z,6.83
2019-06-04T05:17:15.169Z,5.80
2019-06-04T05:19:42.284Z,5.57
2019-06-04T05:22:10.229Z,4.60
2019-06-04T05:24:37.164Z,4.73
2019-06-04T05:27:09.596Z,4.50
2019-06-04T05:29:36.647Z,4.83
2019-06-04T05:32:03.691Z,4.33
2019-06-04T05:34:30.879Z,4.17
2019-06-04T05:36:58.339Z,4.83
2019-06-04T05:39:26.241Z,3.83
2019-06-04T05:41:53.767Z,4.27
2019-06-04T05:44:22.232Z,5.13
2019-06-04T05:46:50.007Z,5.67
2019-06-04T05:49:17.032Z,4.20
2019-06-04T05:51:44.104Z,4.30
2019-06-04T05:54:13.336Z,4.27
2019-06-04T05:56:40.447Z,4.20
2019-06-04T05:59:07.187Z,3.90
2019-06-04T06:01:36.153Z,4.23
2019-06-04T06:04:06.104Z,3.03
2019-06-04T06:06:33.448Z,3.63
2019-06-04T06:09:00.915Z,3.60
2019-06-04T06:11:27.888Z,3.33
2019-06-04T06:13:54.852Z,3.53
2019-06-04T06:16:21.485Z,2.67
2019-06-04T06:18:48.455Z,2.07
2019-06-04T06:21:16.962Z,2.23
2019-06-04T06:23:44.098Z,1.77
2019-06-04T06:26:12.256Z,2.10
2019-06-04T06:28:39.351Z,2.20
2019-06-04T06:31:05.995Z,2.43
2019-06-04T06:33:35.545Z,2.57
2019-06-04T06:36:02.239Z,2.90
2019-06-04T06:38:29.347Z,1.93
2019-06-04T06:40:56.195Z,3.00
2019-06-04T06:43:23.299Z,1.93
2019-06-04T06:46:33.615Z,2.53
2019-06-04T06:49:01.431Z,2.80
2019-06-04T06:51:29.226Z,2.63
2019-06-04T06:53:56.106Z,3.07
2019-06-04T06:56:22.836Z,1.90
2019-06-04T06:58:52.023Z,2.37
2019-06-04T07:01:19.280Z,2.77
2019-06-04T07:03:47.715Z,2.80
2019-06-04T07:06:15.731Z,2.30
2019-06-04T07:08:45.311Z,3.00
2019-06-04T07:11:12.862Z,2.50
2019-06-04T07:13:41.971Z,3.40
2019-06-04T07:16:09.178Z,3.10
2019-06-04T07:18:38.085Z,3.77
2019-06-04T07:21:05.112Z,3.10
2019-06-04T07:23:32.620Z,3.20
2019-06-04T07:26:03.604Z,2.90
2019-06-04T07:28:30.462Z,3.10
2019-06-04T07:31:01.053Z,3.60
2019-06-04T07:33:25.787Z,2.80
2019-06-04T07:35:54.632Z,2.83
2019-06-04T07:38:21.895Z,3.20
2019-06-04T07:40:49.951Z,2.80
2019-06-04T07:43:20.075Z,3.20
2019-06-04T07:45:47.427Z,2.70
2019-06-04T07:48:32.115Z,3.93
2019-06-04T07:50:43.899Z,3.03
2019-06-04T07:53:10.820Z,2.97
2019-06-04T07:55:39.938Z,2.70
2019-06-04T07:58:06.936Z,2.80
2019-06-04T08:00:45.783Z,2.87
2019-06-04T08:03:17.623Z,2.80
2019-06-04T08:05:44.543Z,2.50
2019-06-04T08:08:11.761Z,3.00
2019-06-04T08:10:40.558Z,3.30
2019-06-04T08:13:07.795Z,3.70
2019-06-04T08:15:39.672Z,3.40
2019-06-04T08:18:08.022Z,3.27
2019-06-04T08:20:35.680Z,3.13
2019-06-04T08:23:02.831Z,2.93
2019-06-04T08:25:32.451Z,3.43
2019-06-04T08:27:59.490Z,3.30
2019-06-04T08:30:27.452Z,3.50
2019-06-04T08:32:58.659Z,4.30
2019-06-04T08:35:25.963Z,3.50
2019-06-04T08:37:53.227Z,4.37
2019-06-04T08:40:20.258Z,3.83
2019-06-04T08:42:53.758Z,3.80
2019-06-04T08:45:16.036Z,4.37
2019-06-04T08:47:43.872Z,3.20
2019-06-04T08:50:11.919Z,3.80
2019-06-04T08:52:40.023Z,3.90
2019-06-04T08:55:12.393Z,4.87
2019-06-04T08:57:41.843Z,4.27
2019-06-04T09:00:09.008Z,3.70
2019-06-04T09:02:38.316Z,4.57
2019-06-04T09:05:05.207Z,3.50
2019-06-04T09:07:34.459Z,4.40
2019-06-04T09:10:06.003Z,3.37
2019-06-04T09:12:31.320Z,3.23
2019-06-04T09:14:57.968Z,2.70
2019-06-04T09:17:26.848Z,3.40
2019-06-04T09:19:53.896Z,3.60
2019-06-04T09:22:22.074Z,2.97
2019-06-04T09:24:53.520Z,3.10
2019-06-04T09:27:17.603Z,3.50
2019-06-04T09:29:45.657Z,3.27
2019-06-04T09:32:15.432Z,2.93
2019-06-04T09:34:43.541Z,2.63
2019-06-04T09:37:10.808Z,2.80
2019-06-04T09:39:37.461Z,3.20
2019-06-04T09:42:06.235Z,3.30
2019-06-04T09:44:35.154Z,3.67
2019-06-04T09:47:03.189Z,3.30
2019-06-04T09:49:30.041Z,3.80
2019-06-04T09:51:56.679Z,3.30
2019-06-04T09:54:23.429Z,3.23
2019-06-04T09:56:51.940Z,3.20
2019-06-04T09:59:19.778Z,4.40
2019-06-04T10:01:48.738Z,3.40
2019-06-04T10:04:16.328Z,3.50
2019-06-04T10:06:43.724Z,3.40
2019-06-04T10:09:13.339Z,3.30
2019-06-04T10:11:39.989Z,3.87
2019-06-04T10:14:06.814Z,4.50
2019-06-04T10:16:34.585Z,3.93
2019-06-04T10:19:01.250Z,3.27
2019-06-04T10:21:28.436Z,3.50
2019-06-04T10:23:55.287Z,3.70
2019-06-04T10:26:25.256Z,3.60
2019-06-04T10:29:00.105Z,3.77
2019-06-04T10:31:19.532Z,4.43
2019-06-04T10:33:46.611Z,4.23
2019-06-04T10:36:13.252Z,4.00
2019-06-04T10:38:41.727Z,4.67
2019-06-04T10:41:08.377Z,4.37
2019-06-04T10:43:36.214Z,4.17
2019-06-04T10:46:07.974Z,4.17
2019-06-04T10:48:33.032Z,5.50
2019-06-04T10:50:59.792Z,5.60
2019-06-04T10:53:27.140Z,5.20
2019-06-04T10:55:54.050Z,4.10
2019-06-04T10:58:22.205Z,3.73
2019-06-04T11:00:56.194Z,3.83
2019-06-04T11:03:22.512Z,6.63
2019-06-04T11:05:52.246Z,5.20
2019-06-04T11:08:19.911Z,5.10
2019-06-04T11:10:49.742Z,4.20
2019-06-04T11:13:16.910Z,4.83
2019-06-04T11:15:43.743Z,4.40
2019-06-04T11:18:10.799Z,4.57
2019-06-04T11:20:38.035Z,4.60
2019-06-04T11:23:05.083Z,5.10
2019-06-04T11:25:32.310Z,3.90
2019-06-04T11:28:00.147Z,5.27
2019-06-04T11:30:28.611Z,4.33
2019-06-04T11:32:57.887Z,4.83
2019-06-04T11:35:25.457Z,4.97
2019-06-04T11:37:54.506Z,5.93
2019-06-04T11:40:21.691Z,5.27
2019-06-04T11:42:53.588Z,4.13
2019-06-04T11:45:25.531Z,4.20
2019-06-04T11:47:55.311Z,4.80
2019-06-04T11:50:24.903Z,3.93
2019-06-04T11:52:53.581Z,4.70
2019-06-04T11:55:21.117Z,4.60
2019-06-04T11:57:48.607Z,5.53
2019-06-04T12:00:19.936Z,3.97
2019-06-04T12:02:46.915Z,5.00
2019-06-04T12:05:13.847Z,5.53
2019-06-04T12:07:41.920Z,4.97
2019-06-04T12:10:09.761Z,4.43
2019-06-04T12:12:45.053Z,4.37
2019-06-04T12:15:05.548Z,4.50
2019-06-04T12:17:32.227Z,4.13
2019-06-04T12:19:59.823Z,4.57
2019-06-04T12:22:26.654Z,5.10
2019-06-04T12:24:56.846Z,5.63
2019-06-04T12:27:22.193Z,3.90
2019-06-04T12:29:48.860Z,5.03
2019-06-04T12:32:16.903Z,4.70
2019-06-04T12:34:45.439Z,5.53
2019-06-04T12:37:12.463Z,4.50
2019-06-04T12:39:50.625Z,3.70
2019-06-04T12:42:10.301Z,4.53
2019-06-04T12:44:37.053Z,4.13
2019-06-04T12:47:12.199Z,3.90
2019-06-04T12:49:48.853Z,5.53
2019-06-04T12:52:02.368Z,4.00
2019-06-04T12:54:29.413Z,5.00
2019-06-04T12:56:57.355Z,4.30
2019-06-04T12:59:25.081Z,4.27
2019-06-04T13:01:53.231Z,3.97
2019-06-04T13:04:20.000Z,4.30
2019-06-04T13:06:46.676Z,4.03
2019-06-04T13:09:13.311Z,4.10
2019-06-04T13:11:40.299Z,4.73
2019-06-04T13:14:11.943Z,4.83
2019-06-04T13:16:38.941Z,4.60
2019-06-04T13:19:06.719Z,4.37
2019-06-04T13:21:34.359Z,4.23
2019-06-04T13:24:02.984Z,3.77
2019-06-04T13:26:31.515Z,4.33
2019-06-04T13:28:59.419Z,3.87
2019-06-04T13:31:26.329Z,3.90
2019-06-04T13:33:52.971Z,4.30
2019-06-04T13:36:20.161Z,5.40
2019-06-04T13:38:47.138Z,4.67
2019-06-04T13:41:14.005Z,4.07
2019-06-04T13:43:40.836Z,3.77
2019-06-04T13:46:09.176Z,3.75
2019-06-04T13:48:36.114Z,3.77
2019-06-04T13:51:05.636Z,3.73
2019-06-04T13:53:32.546Z,3.33
2019-06-04T13:56:02.169Z,4.03
2019-06-04T13:58:29.556Z,3.70
2019-06-04T14:00:56.524Z,3.73
2019-06-04T14:03:23.452Z,4.67
2019-06-04T14:05:50.284Z,4.70
2019-06-04T14:08:17.289Z,3.77
2019-06-04T14:10:51.856Z,4.00
2019-06-04T14:13:14.278Z,3.77
2019-06-04T14:15:41.591Z,4.03
2019-06-04T14:18:09.355Z,3.57
2019-06-04T14:20:36.785Z,3.80
2019-06-04T14:23:10.079Z,3.33
2019-06-04T14:25:32.829Z,3.77
2019-06-04T14:28:00.176Z,3.70
2019-06-04T14:30:26.931Z,5.23
2019-06-04T14:32:54.469Z,3.60
2019-06-04T14:35:21.296Z,3.53
2019-06-04T14:37:48.322Z,3.10
2019-06-04T14:40:29.260Z,3.57
2019-06-04T14:42:44.324Z,3.77
2019-06-04T14:45:11.751Z,3.90
2019-06-04T14:47:38.508Z,4.00
2019-06-04T14:50:09.333Z,4.30
2019-06-04T14:52:35.149Z,5.30
2019-06-04T14:55:01.935Z,4.23
2019-06-04T14:57:29.133Z,4.13
2019-06-04T14:59:56.112Z,4.27
2019-06-04T15:02:22.805Z,3.67
2019-06-04T15:04:50.584Z,4.80
2019-06-04T15:07:21.014Z,4.43
2019-06-04T15:09:48.092Z,3.93
2019-06-04T15:12:17.536Z,4.40
2019-06-04T15:14:44.776Z,4.40
2019-06-04T15:17:11.897Z,4.10
2019-06-04T15:19:39.233Z,4.87
2019-06-04T15:22:06.473Z,3.53
2019-06-04T15:24:33.590Z,4.03
2019-06-04T15:27:00.551Z,5.00
2019-06-04T15:29:27.395Z,4.10
2019-06-04T15:31:57.151Z,4.30
2019-06-04T15:34:23.673Z,3.70
2019-06-04T15:36:50.312Z,3.30
2019-06-04T15:39:18.598Z,2.97
2019-06-04T15:41:48.659Z,3.50
2019-06-04T15:44:16.296Z,3.43
2019-06-04T15:46:44.517Z,3.77
2019-06-04T15:49:11.659Z,3.43
2019-06-04T15:51:39.026Z,3.13
2019-06-04T15:54:06.079Z,3.67
2019-06-04T15:56:34.444Z,3.10
2019-06-04T15:59:02.106Z,3.40
2019-06-04T16:01:29.159Z,3.90
2019-06-04T16:03:55.794Z,3.13
2019-06-04T16:06:23.003Z,3.53
2019-06-04T16:08:50.200Z,3.60
2019-06-04T16:11:19.108Z,3.23
2019-06-04T16:13:45.926Z,3.77
2019-06-04T16:16:13.041Z,5.00
2019-06-04T16:18:40.061Z,3.20
2019-06-04T16:21:08.192Z,3.30
2019-06-04T16:23:35.219Z,3.73
2019-06-04T16:26:02.188Z,3.10
2019-06-04T16:28:30.430Z,3.80
2019-06-04T16:30:57.881Z,3.90
2019-06-04T16:33:26.643Z,3.80
2019-06-04T16:35:53.442Z,4.03
2019-06-04T16:38:25.927Z,3.50
2019-06-04T16:40:49.590Z,3.80
2019-06-04T16:43:16.636Z,3.80
2019-06-04T16:45:43.364Z,3.40
2019-06-04T16:48:10.426Z,3.30
2019-06-04T16:50:38.393Z,3.60
2019-06-04T16:53:06.167Z,3.50
2019-06-04T16:55:32.897Z,4.20
2019-06-04T16:57:59.931Z,3.13
2019-06-04T17:00:28.449Z,3.53
2019-06-04T17:02:55.536Z,3.40
2019-06-04T17:05:23.851Z,3.90
2019-06-04T17:07:50.725Z,3.47
2019-06-04T17:10:43.167Z,3.70
2019-06-04T17:13:13.163Z,3.50
2019-06-04T17:15:43.333Z,3.97
2019-06-04T17:18:11.448Z,3.60
2019-06-04T17:20:39.285Z,4.07
2019-06-04T17:23:06.140Z,3.40
2019-06-04T17:25:33.200Z,4.30
2019-06-04T17:27:59.912Z,4.03
2019-06-04T17:30:28.178Z,3.30
2019-06-04T17:32:56.111Z,4.30
2019-06-04T17:35:24.345Z,3.43
2019-06-04T17:37:51.373Z,3.70
2019-06-04T17:40:21.983Z,4.90
2019-06-04T17:43:04.660Z,4.10
2019-06-04T17:45:17.340Z,3.93
2019-06-04T17:47:46.463Z,3.77
2019-06-04T17:50:13.264Z,4.77
2019-06-04T17:52:39.908Z,5.23
2019-06-04T17:55:07.061Z,5.33
2019-06-04T17:57:35.011Z,5.67
2019-06-04T18:00:03.420Z,5.03
2019-06-04T18:02:31.157Z,4.70
2019-06-04T18:04:57.998Z,4.77
2019-06-04T18:07:26.620Z,5.37
2019-06-04T18:09:53.424Z,4.87
2019-06-04T18:12:20.262Z,4.33
2019-06-04T18:14:50.122Z,4.60
2019-06-04T18:17:17.807Z,4.33
2019-06-04T18:19:44.827Z,5.07
2019-06-04T18:22:11.876Z,3.50
2019-06-04T18:24:38.515Z,5.00
2019-06-04T18:27:05.760Z,3.50
2019-06-04T18:29:36.452Z,3.53
2019-06-04T18:32:03.193Z,4.40
2019-06-04T18:34:31.214Z,3.30
2019-06-04T18:36:58.460Z,3.20
2019-06-04T18:39:25.119Z,3.43
2019-06-04T18:41:52.377Z,3.53
2019-06-04T18:44:18.999Z,2.93
2019-06-04T18:46:45.644Z,3.60
2019-06-04T18:49:12.522Z,3.20
2019-06-04T18:51:39.674Z,3.80
2019-06-04T18:54:07.455Z,3.70
2019-06-04T18:56:35.982Z,3.37
2019-06-04T18:59:03.420Z,3.17
2019-06-04T19:01:34.956Z,4.13
2019-06-04T19:04:03.263Z,3.00
2019-06-04T19:06:30.807Z,3.60
2019-06-04T19:08:58.088Z,4.00
2019-06-04T19:11:24.815Z,4.03
2019-06-04T19:14:03.138Z,3.30
2019-06-04T19:16:21.658Z,3.43
2019-06-04T19:18:48.565Z,3.63
2019-06-04T19:21:17.095Z,4.10
2019-06-04T19:23:45.199Z,4.03
2019-06-04T19:26:12.504Z,3.20
2019-06-04T19:28:41.275Z,3.40
2019-06-04T19:31:08.125Z,3.70
2019-06-04T19:33:35.310Z,4.10
2019-06-04T19:36:02.116Z,4.50
2019-06-04T19:38:29.318Z,3.70
2019-06-04T19:40:56.291Z,3.57
2019-06-04T19:43:23.381Z,4.07
2019-06-04T19:45:51.754Z,4.10
2019-06-04T19:48:18.755Z,3.63
2019-06-04T19:50:46.536Z,5.00
2019-06-04T19:53:13.187Z,4.60
2019-06-04T19:55:41.020Z,3.73
2019-06-04T19:58:07.979Z,3.43
2019-06-04T20:00:35.482Z,3.47
2019-06-04T20:03:02.732Z,3.50
2019-06-04T20:05:44.196Z,4.17
2019-06-04T20:07:58.260Z,4.07
2019-06-04T20:10:25.227Z,4.13
2019-06-04T20:12:53.185Z,3.63
2019-06-04T20:15:19.869Z,4.53
2019-06-04T20:17:49.889Z,4.50
2019-06-04T20:20:16.586Z,4.20
2019-06-04T20:22:45.979Z,4.10
2019-06-04T20:25:14.324Z,4.80
2019-06-04T20:27:42.459Z,5.67
2019-06-04T20:30:10.292Z,5.07
2019-06-04T20:32:41.237Z,4.33
2019-06-04T20:35:05.691Z,4.83
2019-06-04T20:37:32.319Z,5.80
2019-06-04T20:39:59.129Z,5.10
2019-06-04T20:42:26.963Z,4.60
2019-06-04T20:45:12.011Z,3.77
2019-06-04T20:47:25.049Z,4.50
2019-06-04T20:49:51.679Z,5.60
2019-06-04T20:52:18.319Z,4.60
2019-06-04T20:54:46.697Z,4.53
2019-06-04T20:57:16.869Z,5.63
2019-06-04T20:59:45.364Z,4.60
2019-06-04T21:02:12.339Z,4.63
2019-06-04T21:04:39.071Z,4.47
2019-06-04T21:07:05.707Z,5.40
2019-06-04T21:09:32.479Z,4.20
2019-06-04T21:11:59.221Z,4.30
2019-06-04T21:14:26.153Z,4.13
2019-06-04T21:16:52.911Z,7.30
2019-06-04T21:19:20.472Z,5.00
2019-06-04T21:21:48.304Z,4.43
2019-06-04T21:24:17.860Z,4.77
2019-06-04T21:26:44.943Z,5.00
2019-06-04T21:29:11.843Z,5.97
2019-06-04T21:31:39.161Z,5.87
2019-06-04T21:34:05.939Z,5.80
2019-06-04T21:36:32.580Z,4.73
2019-06-04T21:38:59.269Z,4.30
2019-06-04T21:41:26.069Z,5.33
2019-06-04T21:43:55.089Z,7.20
2019-06-04T21:46:23.713Z,4.77
2019-06-04T21:48:51.521Z,7.27
2019-06-04T21:51:18.312Z,5.30
2019-06-04T21:53:46.054Z,5.87
2019-06-04T21:56:13.421Z,5.40
2019-06-04T21:58:40.463Z,4.90
2019-06-04T22:01:07.247Z,7.30
2019-06-04T22:03:34.822Z,6.53
2019-06-04T22:06:01.911Z,6.53
2019-06-04T22:08:29.305Z,7.53
2019-06-04T22:10:56.723Z,7.07
2019-06-04T22:13:23.776Z,5.70
2019-06-04T22:16:00.481Z,6.73
2019-06-04T22:18:20.645Z,6.47
2019-06-04T22:20:48.518Z,6.00
2019-06-04T22:23:16.363Z,5.93
2019-06-04T22:25:43.085Z,6.13
2019-06-04T22:28:09.831Z,5.97
2019-06-04T22:30:37.690Z,6.57
2019-06-04T22:33:05.298Z,5.87
2019-06-04T22:35:32.732Z,6.97
2019-06-04T22:38:00.630Z,6.53
2019-06-04T22:40:29.330Z,8.30
2019-06-04T22:42:56.362Z,6.90
2019-06-04T22:45:24.710Z,7.60
2019-06-04T22:47:51.863Z,7.17
2019-06-04T22:50:19.023Z,7.80
2019-06-04T22:52:46.143Z,7.67
2019-06-04T22:55:13.099Z,7.17
2019-06-04T22:57:40.343Z,6.67
2019-06-04T23:00:08.204Z,7.23
2019-06-04T23:02:37.210Z,7.47
2019-06-04T23:05:03.964Z,8.17
2019-06-04T23:07:31.301Z,8.07
2019-06-04T23:10:00.893Z,7.43
2019-06-04T23:12:28.692Z,7.80
2019-06-04T23:14:56.748Z,7.80
2019-06-04T23:17:24.922Z,7.57
2019-06-04T23:19:54.901Z,7.80
2019-06-04T23:22:21.007Z,7.50
2019-06-04T23:24:48.791Z,8.17
2019-06-04T23:27:15.419Z,9.10
2019-06-04T23:29:42.463Z,8.00
2019-06-04T23:32:11.365Z,8.70
2019-06-04T23:34:38.344Z,7.70
2019-06-04T23:37:05.620Z,6.53
2019-06-04T23:39:32.335Z,8.23
2019-06-04T23:41:59.858Z,8.00
2019-06-04T23:44:31.366Z,7.63
2019-06-04T23:47:02.015Z,8.20
2019-06-04T23:49:27.383Z,7.70
2019-06-04T23:51:57.230Z,9.20
2019-06-04T23:54:24.172Z,8.30
2019-06-04T23:56:51.004Z,7.60
2019-06-04T23:59:18.030Z,8.40
